Time;durP1;ratioP1;P1;durP2;ratioP2;P2;SDS_P1;SDS_P2;PMS_P1;PMS_P2;Temp;Humidity;BMP_temperature;BMP_pressure;BME280_temperature;BME280_humidity;BME280_pressure;Samples;Min_cycle;Max_cycle;Signal;HPM_P1;HPM_P2
2021/04/08 00:00:41;;;;;;;3.17;2.47;;;2.60;97.30;;;;;;4992807;28;20593;-84
2021/04/08 00:03:06;;;;;;;6.40;2.90;;;2.60;97.30;;;;;;4994071;28;20197;-82
2021/04/08 00:05:32;;;;;;;4.33;2.53;;;2.60;97.30;;;;;;4993045;28;20213;-84
2021/04/08 00:07:57;;;;;;;6.10;2.13;;;2.60;97.30;;;;;;4992398;28;20644;-84
2021/04/08 00:10:23;;;;;;;3.90;2.60;;;2.60;97.30;;;;;;5011274;28;20189;-84
2021/04/08 00:12:49;;;;;;;5.03;2.37;;;2.60;97.30;;;;;;5010167;28;20590;-85
2021/04/08 00:15:15;;;;;;;2.73;2.10;;;2.50;97.30;;;;;;5002169;28;20208;-84
2021/04/08 00:17:42;;;;;;;3.23;2.13;;;2.50;97.30;;;;;;5010700;28;20181;-86
2021/04/08 00:20:11;;;;;;;4.33;2.50;;;2.50;97.30;;;;;;5010305;28;20628;-83
2021/04/08 00:22:37;;;;;;;9.33;2.70;;;2.50;97.30;;;;;;5010474;28;20554;-84
2021/04/08 00:25:06;;;;;;;5.53;2.90;;;2.50;97.30;;;;;;5010015;28;20527;-84
2021/04/08 00:27:31;;;;;;;8.27;3.40;;;2.50;97.30;;;;;;5010701;28;20173;-84
2021/04/08 00:29:57;;;;;;;7.10;2.63;;;2.50;97.30;;;;;;5010818;28;20493;-83
2021/04/08 00:32:22;;;;;;;3.63;2.50;;;2.50;97.30;;;;;;5010835;28;20177;-84
2021/04/08 00:34:48;;;;;;;12.30;2.63;;;2.40;97.30;;;;;;5010294;28;20212;-83
2021/04/08 00:37:14;;;;;;;8.67;3.10;;;2.40;97.30;;;;;;5010628;28;20176;-83
2021/04/08 00:39:39;;;;;;;3.97;2.30;;;2.50;97.30;;;;;;5010161;28;20208;-84
2021/04/08 00:42:07;;;;;;;5.70;3.00;;;2.40;97.30;;;;;;5010888;28;20201;-84
2021/04/08 00:44:33;;;;;;;7.20;3.93;;;2.40;97.30;;;;;;5010343;28;20474;-84
2021/04/08 00:46:58;;;;;;;4.53;2.20;;;2.40;97.30;;;;;;5010111;28;20847;-84
2021/04/08 00:49:24;;;;;;;6.13;2.80;;;2.40;97.30;;;;;;5010576;28;20952;-84
2021/04/08 00:51:50;;;;;;;7.97;2.60;;;2.40;97.30;;;;;;5010610;28;20593;-83
2021/04/08 00:54:59;;;;;;;;;;;;;;;;;;;;;
2021/04/08 00:57:40;;;;;;;4.93;2.70;;;2.30;97.30;;;;;;4990099;28;20413;-84
2021/04/08 01:00:43;;;;;;;5.53;2.80;;;2.30;97.30;;;;;;5008080;28;20468;-84
2021/04/08 01:05:40;;;;;;;6.83;3.90;;;2.20;97.30;;;;;;5056253;23;20482;-84
2021/04/08 01:08:09;;;;;;;5.60;2.50;;;2.20;97.30;;;;;;5051422;28;20546;-83
2021/04/08 01:10:47;;;;;;;9.40;2.90;;;2.20;97.30;;;;;;5051624;28;20994;-83
2021/04/08 01:13:30;;;;;;;7.40;3.90;;;2.20;97.30;;;;;;5051593;28;20967;-84
2021/04/08 01:20:02;;;;;;;8.07;2.50;;;2.10;97.30;;;;;;5088111;22;20584;-85
2021/04/08 01:22:52;;;;;;;4.10;2.50;;;2.10;97.30;;;;;;5051816;28;21090;-85
2021/04/08 01:25:45;;;;;;;7.53;2.70;;;2.00;97.30;;;;;;5055136;28;20440;-85
2021/04/08 01:28:33;;;;;;;6.07;2.40;;;2.00;97.30;;;;;;5055580;28;20429;-85
2021/04/08 01:31:04;;;;;;;9.00;2.70;;;2.00;97.30;;;;;;5055534;28;20410;-85
2021/04/08 01:33:38;;;;;;;8.33;2.50;;;2.00;97.30;;;;;;5055355;28;20452;-85
2021/04/08 01:36:07;;;;;;;6.07;3.23;;;2.00;97.30;;;;;;5054613;28;20418;-85
2021/04/08 01:38:41;;;;;;;11.33;4.23;;;2.00;97.30;;;;;;5056029;28;20437;-85
2021/04/08 01:41:08;;;;;;;10.30;2.90;;;2.00;97.30;;;;;;5055176;28;20410;-84
2021/04/08 01:43:43;;;;;;;8.30;2.60;;;2.00;97.30;;;;;;5055149;28;20412;-85
2021/04/08 01:46:10;;;;;;;9.93;3.57;;;2.00;97.30;;;;;;5056429;28;20416;-85
2021/04/08 01:49:41;;;;;;;6.30;2.57;;;2.00;97.30;;;;;;5089444;23;20572;-85
2021/04/08 01:53:00;;;;;;;5.53;2.63;;;2.00;97.30;;;;;;4997395;28;20526;-85
2021/04/08 01:59:19;;;;;;;15.77;3.33;;;2.10;97.30;;;;;;5123271;23;20490;-85
2021/04/08 02:01:48;;;;;;;10.53;3.63;;;2.00;97.30;;;;;;5014520;28;20412;-85
2021/04/08 02:04:18;;;;;;;6.30;2.73;;;2.00;97.30;;;;;;5013946;28;20412;-85
2021/04/08 02:06:46;;;;;;;7.80;3.20;;;2.00;97.30;;;;;;5014998;28;20578;-85
2021/04/08 02:09:12;;;;;;;7.73;3.20;;;2.00;97.30;;;;;;5013481;28;20466;-84
2021/04/08 02:11:39;;;;;;;8.90;3.60;;;2.00;97.30;;;;;;5013533;28;21000;-85
2021/04/08 02:14:05;;;;;;;10.93;3.20;;;2.00;97.30;;;;;;5028629;23;20495;-85
2021/04/08 02:16:31;;;;;;;6.23;2.90;;;1.90;97.30;;;;;;5012500;28;20419;-84
2021/04/08 02:19:00;;;;;;;8.33;3.00;;;1.90;97.30;;;;;;5013137;28;20451;-84
2021/04/08 02:21:26;;;;;;;8.93;3.30;;;1.90;97.30;;;;;;5014998;28;20458;-84
2021/04/08 02:23:52;;;;;;;6.83;3.07;;;1.80;97.30;;;;;;5013190;28;20438;-84
2021/04/08 02:26:19;;;;;;;7.47;3.27;;;1.80;97.30;;;;;;5013214;28;20448;-84
2021/04/08 02:28:45;;;;;;;8.97;3.37;;;1.80;97.30;;;;;;5014742;28;20683;-84
2021/04/08 02:31:14;;;;;;;9.53;3.20;;;1.80;97.30;;;;;;5012492;28;20412;-84
2021/04/08 02:33:39;;;;;;;8.07;3.17;;;1.80;97.30;;;;;;5012892;28;20452;-84
2021/04/08 02:36:05;;;;;;;9.07;3.00;;;1.90;97.30;;;;;;5011507;28;20419;-85
2021/04/08 02:38:33;;;;;;;11.43;3.97;;;2.00;97.30;;;;;;5012882;28;20441;-85
2021/04/08 02:41:02;;;;;;;10.30;3.70;;;2.00;97.30;;;;;;4995841;28;20255;-84
2021/04/08 02:43:27;;;;;;;6.03;2.90;;;2.00;97.30;;;;;;4993176;28;20433;-84
2021/04/08 02:45:53;;;;;;;9.77;3.10;;;2.00;97.30;;;;;;4993343;28;20472;-84
2021/04/08 02:48:22;;;;;;;4.13;2.63;;;1.80;97.30;;;;;;5011905;28;20647;-84
2021/04/08 02:50:53;;;;;;;11.40;2.97;;;1.80;97.30;;;;;;5013978;28;20178;-84
2021/04/08 02:53:44;;;;;;;7.53;4.03;;;1.80;97.30;;;;;;5013798;28;20867;-84
2021/04/08 02:56:28;;;;;;;8.33;3.17;;;1.70;97.30;;;;;;5014621;28;20423;-84
2021/04/08 02:59:00;;;;;;;9.63;3.03;;;1.70;97.30;;;;;;5014467;28;20458;-85
2021/04/08 03:01:28;;;;;;;15.90;2.90;;;1.70;97.30;;;;;;5013854;28;20782;-84
2021/04/08 03:03:57;;;;;;;7.40;3.07;;;1.70;97.30;;;;;;5014482;28;20429;-84
2021/04/08 03:06:24;;;;;;;7.03;3.20;;;1.70;97.30;;;;;;5016211;28;20412;-84
2021/04/08 03:08:52;;;;;;;13.60;3.60;;;1.70;97.30;;;;;;5008143;28;20423;-87
2021/04/08 03:11:34;;;;;;;10.83;3.73;;;1.70;97.30;;;;;;4994572;28;20417;-85
2021/04/08 03:14:03;;;;;;;4.67;2.90;;;1.70;97.30;;;;;;4994410;28;20468;-84
2021/04/08 03:16:35;;;;;;;5.60;2.93;;;1.70;97.30;;;;;;4994583;28;20449;-84
2021/04/08 03:19:02;;;;;;;4.80;3.73;;;1.80;97.30;;;;;;4994496;28;20484;-84
2021/04/08 03:21:28;;;;;;;9.27;4.00;;;1.70;97.30;;;;;;4994274;28;20486;-84
2021/04/08 03:23:57;;;;;;;8.00;3.60;;;1.70;97.30;;;;;;4994911;28;20425;-85
2021/04/08 03:26:24;;;;;;;11.20;3.50;;;1.70;97.30;;;;;;4993731;28;20419;-84
2021/04/08 03:28:51;;;;;;;7.30;2.97;;;1.70;97.30;;;;;;4993526;28;20429;-84
2021/04/08 03:31:18;;;;;;;9.70;5.00;;;1.70;97.30;;;;;;4993437;28;20452;-84
2021/04/08 03:33:45;;;;;;;14.20;3.73;;;1.70;97.30;;;;;;4993009;28;20499;-84
2021/04/08 03:36:12;;;;;;;8.60;5.07;;;1.80;97.30;;;;;;4993430;28;20433;-84
2021/04/08 03:38:38;;;;;;;12.03;4.70;;;1.80;97.30;;;;;;4993304;28;20512;-85
2021/04/08 03:41:04;;;;;;;11.73;3.57;;;1.80;97.30;;;;;;4993012;28;20417;-84
2021/04/08 03:43:30;;;;;;;16.70;3.60;;;1.80;97.30;;;;;;4993848;28;20984;-84
2021/04/08 03:46:02;;;;;;;6.87;3.87;;;1.80;97.30;;;;;;4993033;28;20174;-84
2021/04/08 03:48:29;;;;;;;5.80;3.50;;;1.80;97.30;;;;;;4994663;28;20428;-85
2021/04/08 03:50:56;;;;;;;7.80;3.63;;;1.90;97.30;;;;;;4994511;28;20504;-85
2021/04/08 03:53:22;;;;;;;9.70;3.70;;;1.90;97.30;;;;;;4993227;28;20464;-84
2021/04/08 03:55:48;;;;;;;11.50;3.57;;;1.90;97.30;;;;;;4992659;28;20420;-84
2021/04/08 03:58:16;;;;;;;21.37;4.10;;;1.90;97.30;;;;;;4992713;28;20561;-84
2021/04/08 04:00:42;;;;;;;5.30;2.90;;;1.80;97.30;;;;;;4992703;28;20212;-86
2021/04/08 04:03:13;;;;;;;8.53;3.40;;;1.80;97.30;;;;;;4991713;28;20494;-86
2021/04/08 04:05:40;;;;;;;6.67;3.67;;;1.80;97.30;;;;;;4991675;28;20424;-84
2021/04/08 04:08:07;;;;;;;7.60;3.80;;;1.80;97.30;;;;;;4992494;28;20413;-85
2021/04/08 04:10:38;;;;;;;10.80;3.07;;;1.80;97.30;;;;;;5011181;28;20507;-84
2021/04/08 04:13:04;;;;;;;7.93;3.30;;;1.80;97.30;;;;;;5011116;28;20464;-84
2021/04/08 04:15:35;;;;;;;7.67;3.03;;;1.80;97.30;;;;;;5020172;28;20424;-88
2021/04/08 04:18:08;;;;;;;4.90;2.70;;;1.80;97.30;;;;;;5034646;28;20420;-84
2021/04/08 04:20:36;;;;;;;15.00;3.40;;;1.80;97.30;;;;;;5010980;28;20459;-84
2021/04/08 04:23:04;;;;;;;8.10;3.17;;;1.80;97.30;;;;;;5011091;28;20440;-84
2021/04/08 04:25:31;;;;;;;6.97;2.90;;;1.80;97.30;;;;;;5011481;28;20412;-84
2021/04/08 04:27:57;;;;;;;8.90;3.13;;;1.80;97.30;;;;;;5012154;28;20503;-85
2021/04/08 04:30:23;;;;;;;12.07;3.23;;;1.80;97.30;;;;;;5011081;28;20424;-84
2021/04/08 04:32:52;;;;;;;17.63;2.83;;;1.70;97.30;;;;;;5011004;28;20857;-85
2021/04/08 04:35:17;;;;;;;8.77;3.67;;;1.80;97.30;;;;;;5011840;28;20181;-84
2021/04/08 04:37:43;;;;;;;5.47;3.53;;;1.80;97.30;;;;;;5010784;28;20422;-85
2021/04/08 04:40:09;;;;;;;10.93;3.40;;;1.80;97.30;;;;;;5010947;28;20201;-84
2021/04/08 04:42:36;;;;;;;5.13;2.83;;;1.70;97.30;;;;;;5010828;28;20526;-83
2021/04/08 04:45:03;;;;;;;20.73;4.70;;;1.70;97.30;;;;;;5012458;28;20408;-85
2021/04/08 04:47:28;;;;;;;10.60;3.00;;;1.70;97.30;;;;;;5010641;28;20416;-85
2021/04/08 04:49:54;;;;;;;9.63;3.70;;;1.70;97.30;;;;;;5010468;28;20431;-82
2021/04/08 04:52:20;;;;;;;8.10;3.10;;;1.70;97.30;;;;;;5011045;28;20211;-85
2021/04/08 04:54:45;;;;;;;11.73;3.47;;;1.70;97.30;;;;;;5011096;28;20248;-84
2021/04/08 04:57:11;;;;;;;17.37;3.70;;;1.80;97.30;;;;;;5010999;28;20264;-84
2021/04/08 04:59:37;;;;;;;10.43;3.00;;;1.80;97.30;;;;;;5011612;28;20578;-84
2021/04/08 05:02:03;;;;;;;12.13;3.37;;;1.80;97.30;;;;;;5012217;28;20212;-84
2021/04/08 05:04:28;;;;;;;16.33;3.50;;;1.80;97.30;;;;;;5016935;28;20197;-87
2021/04/08 05:06:54;;;;;;;6.43;3.20;;;1.80;97.30;;;;;;5016073;28;20221;-86
2021/04/08 05:09:19;;;;;;;7.07;3.30;;;1.90;97.30;;;;;;5002550;28;20189;-86
2021/04/08 05:11:45;;;;;;;11.33;3.50;;;1.90;97.30;;;;;;4992495;28;20653;-86
2021/04/08 05:14:11;;;;;;;8.83;3.50;;;1.90;97.30;;;;;;4992770;28;20762;-86
2021/04/08 05:16:36;;;;;;;7.80;2.90;;;2.00;97.30;;;;;;4992533;28;20232;-83
2021/04/08 05:19:02;;;;;;;10.37;2.60;;;2.00;97.30;;;;;;4995653;28;20205;-84
2021/04/08 05:21:28;;;;;;;9.00;3.63;;;2.00;97.30;;;;;;4994666;28;20656;-85
2021/04/08 05:23:54;;;;;;;11.93;4.27;;;2.10;97.30;;;;;;4994954;28;20449;-80
2021/04/08 05:26:20;;;;;;;9.90;3.20;;;2.10;97.30;;;;;;4995515;28;20187;-84
2021/04/08 05:28:46;;;;;;;5.23;3.37;;;2.10;97.30;;;;;;4993818;28;20558;-84
2021/04/08 05:31:11;;;;;;;9.70;3.20;;;2.10;97.30;;;;;;4997839;28;20413;-85
2021/04/08 05:33:37;;;;;;;6.40;2.90;;;2.10;97.30;;;;;;4998176;28;20194;-85
2021/04/08 05:36:03;;;;;;;11.37;3.53;;;2.10;97.30;;;;;;4994915;28;20201;-85
2021/04/08 05:38:29;;;;;;;15.93;3.63;;;2.00;97.30;;;;;;4993017;28;20182;-86
2021/04/08 05:40:54;;;;;;;7.87;3.63;;;2.00;97.30;;;;;;4991529;28;20476;-86
2021/04/08 05:43:20;;;;;;;15.37;3.90;;;2.10;97.30;;;;;;4991021;28;20344;-84
2021/04/08 05:45:46;;;;;;;12.63;3.90;;;2.00;97.30;;;;;;4991702;28;20243;-86
2021/04/08 05:48:13;;;;;;;11.13;4.30;;;2.00;97.30;;;;;;5007849;28;20939;-84
2021/04/08 05:50:40;;;;;;;7.87;4.00;;;2.10;97.30;;;;;;5011820;28;20496;-86
2021/04/08 05:53:06;;;;;;;11.27;4.57;;;2.10;97.30;;;;;;5010905;28;20943;-85
2021/04/08 05:55:31;;;;;;;12.50;4.77;;;2.10;97.30;;;;;;5010934;28;20416;-85
2021/04/08 05:57:57;;;;;;;14.53;4.50;;;2.10;97.30;;;;;;5011190;28;20204;-86
2021/04/08 06:00:23;;;;;;;23.60;5.10;;;2.20;97.30;;;;;;5012868;28;20203;-85
2021/04/08 06:02:48;;;;;;;14.33;4.13;;;2.20;97.30;;;;;;4998825;28;20212;-86
2021/04/08 06:05:17;;;;;;;12.40;4.57;;;2.20;97.30;;;;;;4999950;28;20269;-85
2021/04/08 06:07:43;;;;;;;7.80;3.83;;;2.20;97.30;;;;;;5001911;28;20170;-88
2021/04/08 06:10:09;;;;;;;16.73;4.60;;;2.20;97.30;;;;;;5002344;28;20416;-85
2021/04/08 06:12:35;;;;;;;19.77;4.70;;;2.20;97.30;;;;;;5003961;28;20401;-85
2021/04/08 06:15:01;;;;;;;11.53;3.43;;;2.30;97.30;;;;;;5004395;28;20432;-86
2021/04/08 06:17:26;;;;;;;10.50;4.73;;;2.30;97.30;;;;;;5004999;28;20247;-86
2021/04/08 06:19:52;;;;;;;20.90;5.37;;;2.40;97.30;;;;;;5005277;28;20830;-85
2021/04/08 06:22:18;;;;;;;23.60;4.83;;;2.40;97.30;;;;;;5001676;28;20176;-85
2021/04/08 06:24:46;;;;;;;9.13;4.30;;;2.50;97.30;;;;;;5004454;28;20200;-86
2021/04/08 06:27:12;;;;;;;11.40;3.80;;;2.50;97.30;;;;;;5002761;28;20177;-87
2021/04/08 06:29:37;;;;;;;10.50;4.17;;;2.50;97.30;;;;;;5001455;28;20413;-85
2021/04/08 06:32:07;;;;;;;7.23;3.43;;;2.50;97.30;;;;;;5002265;28;20606;-85
2021/04/08 06:34:33;;;;;;;16.57;4.33;;;2.60;97.30;;;;;;5018093;28;20193;-84
2021/04/08 06:36:58;;;;;;;8.50;4.27;;;2.60;97.30;;;;;;5004975;28;20467;-85
2021/04/08 06:39:24;;;;;;;11.87;4.13;;;2.80;97.30;;;;;;5004163;28;20228;-85
2021/04/08 06:41:51;;;;;;;16.17;3.50;;;2.90;97.30;;;;;;5010294;28;20181;-86
2021/04/08 06:44:24;;;;;;;9.53;3.40;;;2.90;97.30;;;;;;5013622;28;20197;-85
2021/04/08 06:46:54;;;;;;;15.80;5.10;;;3.00;97.30;;;;;;5008241;28;20478;-85
2021/04/08 06:49:24;;;;;;;11.17;4.00;;;3.00;97.30;;;;;;4993775;28;20520;-85
2021/04/08 06:51:55;;;;;;;10.20;4.30;;;3.00;97.30;;;;;;4993922;28;20803;-84
2021/04/08 06:54:21;;;;;;;14.50;4.63;;;3.10;97.30;;;;;;4993948;28;20970;-85
2021/04/08 06:56:54;;;;;;;11.87;3.60;;;3.10;97.30;;;;;;4996407;28;20475;-85
2021/04/08 06:59:20;;;;;;;8.77;3.20;;;3.20;97.30;;;;;;4998981;28;20449;-85
2021/04/08 07:01:47;;;;;;;12.27;3.67;;;3.20;97.30;;;;;;4999374;28;20443;-85
2021/04/08 07:04:14;;;;;;;8.80;3.63;;;3.30;97.30;;;;;;4995867;28;20433;-86
2021/04/08 07:06:41;;;;;;;10.40;3.53;;;3.30;97.30;;;;;;4995126;28;20413;-85
2021/04/08 07:09:09;;;;;;;9.40;3.00;;;3.30;97.30;;;;;;5005103;28;20846;-84
2021/04/08 07:11:36;;;;;;;12.97;2.90;;;3.50;97.30;;;;;;5015476;28;20714;-85
2021/04/08 07:14:04;;;;;;;8.13;3.03;;;3.60;97.30;;;;;;5013762;28;20499;-85
2021/04/08 07:16:30;;;;;;;16.20;4.40;;;3.70;97.30;;;;;;5015960;28;20424;-86
2021/04/08 07:18:58;;;;;;;13.20;3.70;;;3.80;97.30;;;;;;5013988;28;20842;-85
2021/04/08 07:21:28;;;;;;;11.87;3.60;;;3.90;97.30;;;;;;5013822;28;20420;-85
2021/04/08 07:24:14;;;;;;;12.43;4.80;;;3.90;97.30;;;;;;5014037;28;20432;-86
2021/04/08 07:27:04;;;;;;;9.93;3.23;;;3.90;97.30;;;;;;5013818;28;20867;-84
2021/04/08 07:29:39;;;;;;;13.60;4.57;;;4.00;97.30;;;;;;5014640;28;21059;-85
2021/04/08 07:32:05;;;;;;;14.20;4.30;;;3.90;97.30;;;;;;5015449;28;20443;-85
2021/04/08 07:34:34;;;;;;;9.50;3.60;;;3.90;97.30;;;;;;5014087;28;20436;-87
2021/04/08 07:37:00;;;;;;;9.60;3.57;;;3.90;97.30;;;;;;5013918;28;20508;-85
2021/04/08 07:39:26;;;;;;;10.93;3.70;;;4.00;97.30;;;;;;5012435;28;20450;-87
2021/04/08 07:42:00;;;;;;;12.60;5.13;;;4.00;97.30;;;;;;5014245;28;20408;-85
2021/04/08 07:44:26;;;;;;;14.53;5.80;;;4.00;97.30;;;;;;5013887;28;20473;-85
2021/04/08 07:46:51;;;;;;;14.43;3.60;;;4.20;97.30;;;;;;5007325;28;20773;-87
2021/04/08 07:49:32;;;;;;;6.73;2.70;;;4.40;97.30;;;;;;4993397;28;20281;-84
2021/04/08 07:52:14;;;;;;;12.00;3.73;;;4.50;97.30;;;;;;4993420;28;20637;-85
2021/04/08 07:54:40;;;;;;;10.43;3.27;;;4.50;96.80;;;;;;4993749;28;20448;-85
2021/04/08 07:57:05;;;;;;;14.03;3.73;;;4.50;97.20;;;;;;4993481;28;20420;-85
2021/04/08 07:59:31;;;;;;;6.33;3.30;;;4.50;97.30;;;;;;4993999;28;20980;-85
2021/04/08 08:02:08;;;;;;;9.70;3.80;;;4.60;97.30;;;;;;4994914;28;20174;-86
2021/04/08 08:04:33;;;;;;;9.67;3.37;;;4.60;97.30;;;;;;4994291;28;20656;-86
2021/04/08 08:06:59;;;;;;;6.67;3.00;;;4.50;95.70;;;;;;4993710;28;20425;-85
2021/04/08 08:09:30;;;;;;;10.03;3.40;;;4.60;95.40;;;;;;5005956;28;20205;-85
2021/04/08 08:12:17;;;;;;;5.67;2.60;;;4.70;95.70;;;;;;5012700;28;20204;-85
2021/04/08 08:14:43;;;;;;;7.60;3.03;;;4.70;95.10;;;;;;5045137;22;20495;-71
2021/04/08 08:17:14;;;;;;;6.47;3.37;;;4.70;95.80;;;;;;5011027;28;20941;-73
2021/04/08 08:19:44;;;;;;;15.23;3.80;;;4.70;95.70;;;;;;5010867;28;20475;-73
2021/04/08 08:22:19;;;;;;;7.83;3.33;;;4.60;95.10;;;;;;5011445;28;20440;-71
2021/04/08 08:24:56;;;;;;;5.80;3.07;;;4.50;95.40;;;;;;5010660;28;20423;-71
2021/04/08 08:27:39;;;;;;;6.03;3.17;;;4.50;95.50;;;;;;5011666;28;20408;-71
2021/04/08 08:30:08;;;;;;;10.33;2.50;;;4.50;96.00;;;;;;5011566;28;20424;-72
2021/04/08 08:32:34;;;;;;;12.47;2.80;;;4.40;95.80;;;;;;5009846;28;20955;-73
2021/04/08 08:34:59;;;;;;;9.50;2.70;;;4.30;95.80;;;;;;5010352;28;20487;-73
2021/04/08 08:37:26;;;;;;;10.27;3.23;;;4.40;96.20;;;;;;5010290;28;20550;-73
2021/04/08 08:39:53;;;;;;;6.53;3.23;;;4.50;95.80;;;;;;5010311;28;20240;-71
2021/04/08 08:42:21;;;;;;;8.63;2.70;;;4.60;96.00;;;;;;5010316;28;20447;-73
2021/04/08 08:44:47;;;;;;;8.33;2.93;;;4.60;95.10;;;;;;5010330;28;20412;-73
2021/04/08 08:47:28;;;;;;;11.73;2.53;;;4.60;95.50;;;;;;5010235;28;20495;-72
2021/04/08 08:50:10;;;;;;;9.73;2.90;;;4.60;95.40;;;;;;5010517;28;20423;-72
2021/04/08 08:52:40;;;;;;;7.63;2.87;;;4.70;95.90;;;;;;5011076;28;20427;-72
2021/04/08 08:55:08;;;;;;;15.97;3.13;;;4.80;95.80;;;;;;5010379;28;20420;-74
2021/04/08 08:57:33;;;;;;;5.10;2.67;;;5.10;95.50;;;;;;5010963;28;20519;-72
2021/04/08 09:00:00;;;;;;;16.63;3.03;;;5.20;94.40;;;;;;5009816;28;20542;-73
2021/04/08 09:02:26;;;;;;;10.43;3.83;;;5.20;94.80;;;;;;5011208;28;20224;-71
2021/04/08 09:04:53;;;;;;;9.87;4.40;;;5.00;96.20;;;;;;5009859;28;20416;-71
2021/04/08 09:07:20;;;;;;;7.03;3.10;;;4.80;97.30;;;;;;5010865;28;20439;-70
2021/04/08 09:09:50;;;;;;;6.80;3.60;;;4.40;97.30;;;;;;4995706;28;20413;-71
2021/04/08 09:12:18;;;;;;;11.77;3.83;;;4.10;97.30;;;;;;4990214;28;20429;-71
2021/04/08 09:14:47;;;;;;;5.30;3.40;;;3.90;97.30;;;;;;4991208;28;20472;-71
2021/04/08 09:17:33;;;;;;;7.97;3.67;;;3.90;97.30;;;;;;4989917;28;20858;-73
2021/04/08 09:20:04;;;;;;;8.97;4.27;;;4.20;97.30;;;;;;4989940;28;20495;-70
2021/04/08 09:22:30;;;;;;;9.27;4.50;;;4.70;97.30;;;;;;4991354;28;21043;-71
2021/04/08 09:24:56;;;;;;;12.83;4.07;;;5.00;97.30;;;;;;4993295;28;20500;-71
2021/04/08 09:27:22;;;;;;;9.50;3.37;;;5.00;97.30;;;;;;4991879;28;20189;-71
2021/04/08 09:29:53;;;;;;;6.13;3.87;;;5.00;97.30;;;;;;4990842;28;20421;-71
2021/04/08 09:32:35;;;;;;;11.20;4.40;;;5.00;97.30;;;;;;4991214;28;20444;-71
2021/04/08 09:35:09;;;;;;;9.50;5.30;;;5.20;97.30;;;;;;4989726;28;20424;-71
2021/04/08 09:37:51;;;;;;;10.60;3.97;;;5.40;97.30;;;;;;4991002;28;20417;-71
2021/04/08 09:43:25;;;;;;;10.10;4.07;;;5.50;97.10;;;;;;4986365;28;20983;-71
2021/04/08 09:46:01;;;;;;;7.97;2.93;;;5.70;97.30;;;;;;4993527;28;20425;-71
2021/04/08 09:48:45;;;;;;;7.17;2.70;;;5.90;95.20;;;;;;5014027;28;20415;-72
2021/04/08 09:51:28;;;;;;;6.73;2.53;;;6.00;93.00;;;;;;5013029;28;20444;-72
2021/04/08 09:53:53;;;;;;;10.73;3.10;;;6.10;92.70;;;;;;5014442;28;20910;-71
2021/04/08 09:56:37;;;;;;;7.83;2.83;;;6.00;92.20;;;;;;5013183;28;20427;-71
2021/04/08 09:59:03;;;;;;;10.53;3.60;;;5.60;94.70;;;;;;5013862;28;20193;-71
2021/04/08 10:01:29;;;;;;;6.20;2.80;;;5.00;97.30;;;;;;5013855;28;20866;-71
2021/04/08 10:03:54;;;;;;;9.30;3.93;;;4.60;97.30;;;;;;5014437;28;20226;-72
2021/04/08 10:06:23;;;;;;;12.23;5.63;;;4.50;97.30;;;;;;5014017;28;20174;-71
2021/04/08 10:08:49;;;;;;;11.53;4.30;;;4.50;97.30;;;;;;5006303;28;20261;-73
2021/04/08 10:11:31;;;;;;;6.53;3.57;;;4.40;97.30;;;;;;4994711;28;20427;-73
2021/04/08 10:13:57;;;;;;;5.80;3.07;;;4.50;97.30;;;;;;4994330;28;20463;-71
2021/04/08 10:16:22;;;;;;;2.90;2.00;;;4.70;97.30;;;;;;4992863;28;20460;-71
2021/04/08 10:18:59;;;;;;;7.70;2.50;;;4.70;97.30;;;;;;4994227;28;20416;-73
2021/04/08 10:21:25;;;;;;;9.20;2.70;;;4.70;97.30;;;;;;4994486;28;20201;-71
2021/04/08 10:23:52;;;;;;;4.40;2.33;;;5.00;97.30;;;;;;4994242;28;20773;-71
2021/04/08 10:26:18;;;;;;;6.43;2.00;;;5.40;97.30;;;;;;4993129;28;20170;-71
2021/04/08 10:28:54;;;;;;;3.87;2.27;;;5.60;97.30;;;;;;4992866;28;20410;-70
2021/04/08 10:31:31;;;;;;;13.03;2.43;;;5.70;96.20;;;;;;4994118;28;20433;-71
2021/04/08 10:34:09;;;;;;;5.70;1.73;;;5.70;95.50;;;;;;4994569;28;20405;-70
2021/04/08 10:36:35;;;;;;;8.77;3.00;;;5.80;95.30;;;;;;4993991;28;20720;-71
2021/04/08 10:39:10;;;;;;;6.90;2.73;;;5.60;95.70;;;;;;4992846;28;20413;-70
2021/04/08 10:41:38;;;;;;;6.20;2.80;;;5.40;96.60;;;;;;4992557;28;20439;-71
2021/04/08 10:44:28;;;;;;;8.80;2.60;;;5.10;97.30;;;;;;4992605;28;20827;-71
2021/04/08 10:46:58;;;;;;;4.90;2.10;;;4.90;97.30;;;;;;4999829;28;20408;-71
2021/04/08 10:49:48;;;;;;;4.70;1.83;;;4.90;96.20;;;;;;4993613;28;20409;-71
2021/04/08 10:52:19;;;;;;;5.43;2.23;;;5.10;94.20;;;;;;4992296;28;20441;-71
2021/04/08 10:54:48;;;;;;;5.47;2.10;;;5.20;93.80;;;;;;4993793;28;21103;-70
2021/04/08 10:57:15;;;;;;;5.30;3.10;;;5.30;94.30;;;;;;5007790;28;20709;-71
2021/04/08 10:59:43;;;;;;;6.23;2.60;;;5.50;95.30;;;;;;4993242;28;20456;-71
2021/04/08 11:02:30;;;;;;;4.83;2.30;;;5.80;96.00;;;;;;4993422;28;20440;-71
2021/04/08 11:04:58;;;;;;;4.20;2.80;;;6.10;95.20;;;;;;4992090;28;20847;-70
2021/04/08 11:07:25;;;;;;;4.00;2.30;;;6.30;93.80;;;;;;4993279;28;20823;-71
2021/04/08 11:09:52;;;;;;;7.30;2.77;;;6.70;93.50;;;;;;5003746;28;20425;-70
2021/04/08 11:12:25;;;;;;;8.50;2.60;;;7.00;92.10;;;;;;4992011;28;20500;-71
2021/04/08 11:14:56;;;;;;;10.37;3.83;;;7.20;90.00;;;;;;4993368;28;20449;-71
2021/04/08 11:17:24;;;;;;;5.40;2.57;;;7.20;90.40;;;;;;4993620;28;20413;-71
2021/04/08 11:19:52;;;;;;;2.60;1.83;;;7.20;89.60;;;;;;4991971;28;20835;-71
2021/04/08 11:22:21;;;;;;;3.20;2.27;;;7.10;87.10;;;;;;4991993;28;20448;-71
2021/04/08 11:24:51;;;;;;;5.27;3.13;;;6.90;88.00;;;;;;4992021;28;20461;-71
2021/04/08 11:27:26;;;;;;;7.70;3.30;;;6.80;89.90;;;;;;4993297;28;20409;-71
2021/04/08 11:29:53;;;;;;;4.30;2.40;;;6.60;89.30;;;;;;4992788;28;20525;-71
2021/04/08 11:32:19;;;;;;;6.63;2.93;;;6.70;90.20;;;;;;4991827;28;20491;-72
2021/04/08 11:34:49;;;;;;;5.80;3.13;;;6.90;90.90;;;;;;4992056;28;20456;-72
2021/04/08 11:37:18;;;;;;;5.07;3.07;;;7.10;88.10;;;;;;4992358;28;20417;-72
2021/04/08 11:39:45;;;;;;;5.87;2.60;;;7.40;86.90;;;;;;4993301;28;20460;-71
2021/04/08 11:42:23;;;;;;;4.90;2.90;;;7.70;85.50;;;;;;4992925;28;20615;-71
2021/04/08 11:44:51;;;;;;;6.90;2.30;;;7.80;83.70;;;;;;4992841;28;20413;-71
2021/04/08 11:47:22;;;;;;;4.50;2.67;;;7.80;83.90;;;;;;5000775;28;20420;-72
2021/04/08 11:49:51;;;;;;;5.10;2.43;;;7.80;84.20;;;;;;5012370;28;20990;-71
2021/04/08 11:52:19;;;;;;;4.60;2.80;;;8.00;83.60;;;;;;5011917;28;20436;-71
2021/04/08 11:55:08;;;;;;;4.40;2.90;;;8.00;83.30;;;;;;5011331;28;20789;-72
2021/04/08 11:57:35;;;;;;;6.10;3.20;;;7.70;84.20;;;;;;5011223;28;20413;-72
2021/04/08 12:00:04;;;;;;;9.03;2.70;;;7.70;86.20;;;;;;5010524;28;20459;-73
2021/04/08 12:02:32;;;;;;;8.37;3.30;;;7.50;88.10;;;;;;5012209;28;20444;-72
2021/04/08 12:05:00;;;;;;;7.90;2.97;;;7.40;88.40;;;;;;5011122;28;20429;-72
2021/04/08 12:07:26;;;;;;;8.87;3.70;;;7.40;85.20;;;;;;5010543;28;20424;-73
2021/04/08 12:09:53;;;;;;;10.07;5.00;;;7.40;85.80;;;;;;4995451;28;20432;-72
2021/04/08 12:12:28;;;;;;;14.77;5.70;;;7.40;84.00;;;;;;4991167;28;20480;-72
2021/04/08 12:15:00;;;;;;;5.97;2.67;;;7.30;84.40;;;;;;4991107;28;20468;-72
2021/04/08 12:17:27;;;;;;;6.50;3.00;;;7.20;84.10;;;;;;4991162;28;20425;-72
2021/04/08 12:19:53;;;;;;;4.87;2.43;;;7.10;85.30;;;;;;4992458;28;21021;-71
2021/04/08 12:22:19;;;;;;;6.07;3.27;;;6.80;84.70;;;;;;4991729;28;20783;-72
2021/04/08 12:25:08;;;;;;;5.83;2.77;;;6.70;86.90;;;;;;4992758;28;20445;-72
2021/04/08 12:27:34;;;;;;;3.67;2.43;;;6.50;87.70;;;;;;4991843;28;20783;-71
2021/04/08 12:30:00;;;;;;;6.57;2.80;;;6.40;88.80;;;;;;4991998;28;20417;-71
2021/04/08 12:32:28;;;;;;;4.27;2.50;;;6.20;89.10;;;;;;4992043;28;20435;-71
2021/04/08 12:34:53;;;;;;;8.20;3.00;;;6.10;89.20;;;;;;4991036;28;20217;-72
2021/04/08 12:37:19;;;;;;;10.10;2.93;;;6.10;88.80;;;;;;4991739;28;20463;-72
2021/04/08 12:39:44;;;;;;;6.50;2.87;;;6.10;88.50;;;;;;4990390;28;20213;-72
2021/04/08 12:42:11;;;;;;;4.60;2.50;;;6.20;88.20;;;;;;4992365;28;20243;-71
2021/04/08 12:44:36;;;;;;;6.60;2.53;;;6.40;86.60;;;;;;4991375;28;20332;-71
2021/04/08 12:47:02;;;;;;;4.63;2.17;;;6.50;85.60;;;;;;4999613;28;20445;-72
2021/04/08 12:49:28;;;;;;;9.73;2.47;;;6.60;85.80;;;;;;5010737;28;20640;-72
2021/04/08 12:51:54;;;;;;;4.43;2.53;;;6.70;85.40;;;;;;5010044;28;20483;-72
2021/04/08 12:54:19;;;;;;;4.90;2.57;;;6.60;84.40;;;;;;5009854;28;20319;-72
2021/04/08 12:56:45;;;;;;;3.20;2.53;;;6.50;83.60;;;;;;5010273;28;20182;-72
2021/04/08 12:59:11;;;;;;;3.53;2.60;;;6.50;83.90;;;;;;5009967;28;20192;-72
2021/04/08 13:01:37;;;;;;;3.97;2.53;;;6.60;84.30;;;;;;5011071;28;20439;-72
2021/04/08 13:04:03;;;;;;;8.60;2.60;;;6.70;84.30;;;;;;5010167;28;20181;-72
2021/04/08 13:06:28;;;;;;;5.00;2.60;;;6.90;84.30;;;;;;5010283;28;20510;-71
2021/04/08 13:08:54;;;;;;;6.20;2.50;;;7.40;83.50;;;;;;5003216;28;20182;-72
2021/04/08 13:11:20;;;;;;;7.47;2.47;;;7.80;83.20;;;;;;4990739;28;20277;-73
2021/04/08 13:13:45;;;;;;;8.10;2.80;;;8.00;82.10;;;;;;4989990;28;20182;-72
2021/04/08 13:16:11;;;;;;;5.73;2.97;;;8.30;83.10;;;;;;4990150;28;20221;-72
2021/04/08 13:18:37;;;;;;;4.10;2.77;;;8.40;81.70;;;;;;4991804;28;20253;-72
2021/04/08 13:21:03;;;;;;;4.53;2.80;;;8.50;81.50;;;;;;4994285;28;20401;-72